Detall de PIREP

Printer-friendly versionPDF version

[2014/11/21 08:15:00]
Flight IATA:CT2209
Pilot Number:012
Company ICAO:CAT
Aircraft Type:B738/F
PAX:160
Departing Airport: LFQQ
Destination Airport: LFMP
Alternate Airport:LEBL
Online: VATSIM
Route:CMB B3 VATRI G40 TRO B373 MOU A27 CFA UY27 MOKDI A27 SIJAN
Flight Level:F350
No Slew and time accel
No pause
Crash detect
Detect pilot in Cockpit between each 30 and 45 minutes
08:15 Zero fuel Weight: 123052 Lbs, Fuel Weight: 15802 Lbs
08:15 VATSIM:LFQQ 210800Z 07003KT 3500 BR NSC 03/03 Q1021 NOSIG
08:15 VATSIM:LFMP 210800Z VRB02KT 9999 FEW015 11/11 Q1020 NOSIG
08:16 Parking Brakes off
08:21 Take-off
08:21 Take off Weight: 138244 Lbs
08:21 Wind: 070º @ 003 Knots Heading: 077º
08:21 POS N50º 33´ 58´´ E003º 06´ 24´´
08:21 Gear Up: 161 Knots
08:21 Flaps:3 at 161 Knots
08:22 Flaps:2 at 157 Knots
08:22 Flaps:1 at 170 Knots
08:23 Flaps:0 at 180 Knots
08:36 Wind:266º@038 Knots Heading: 151º Ground Speed: 481 Knots Altitude 30616 ft
08:39 TOC
08:39 Fuel Weight: 11518 Lb
08:51 Wind:259º@030 Knots Heading: 191º Ground Speed: 442 Knots Altitude 35177 ft
09:06 Wind:232º@001 Knots Heading: 182º Ground Speed: 455 Knots Altitude 35170 ft
09:15 TOD
09:15 Fuel Weight: 8127 Lb
09:21 Wind:246º@020 Knots Heading: 189º Ground Speed: 384 Knots Altitude 21328 ft
09:36 Wind:301º@002 Knots Heading: 197º Ground Speed: 233 Knots Altitude 2162 ft
09:37 Flaps:1 at 209 Knots
09:37 Flaps:2 at 209 Knots
09:38 Flaps:3 at 193 Knots
09:38 Flaps:4 at 193 Knots
09:39 Gear Down: 169 Knots
09:39 Flaps:5 at 167 Knots
09:39 Flaps:6 at 159 Knots
09:40 Flaps:7 at 152 Knots
09:40 Flaps:8 at 151 Knots
09:42 TouchDown:Rate -253 ft/min Speed: 123 Knots
09:42 Flaps:5 at 65 Knots
09:42 Flaps:0 at 65 Knots
09:42 VATSIM:LFMP 210930Z VRB02KT 9999 FEW020 15/13 Q1020 NOSIG
09:42 Land
09:42 Wind:359º@002 Knots
09:42 Heading: 328º
09:42 Flight Duration: 01:21
09:42 Landing Weight: 129884 Lbs
09:42 POS N42º 44´ 47´´ E002º 52´ 05´´
09:45 Parking brakes on
09:45 Block to Block Duration: 01:29
09:45 Final Fuel: 6618 Lbls
09:45 Spent Fuel: 9184 Lbls
09:45 Flight Length: 509 NM
09:45 TOD Land Length: 129 NM

Exportar CSV

Powered by Drupal - Modified by Danger4k